Time;durP1;ratioP1;P1;durP2;ratioP2;P2;SDS_P1;SDS_P2;PMS_P1;PMS_P2;Temp;Humidity;BMP_temperature;BMP_pressure;BME280_temperature;BME280_humidity;BME280_pressure;Samples;Min_cycle;Max_cycle;Signal;HPM_P1;HPM_P2
2021/04/07 00:01:41;;;;;;;25.20;17.08;;;;;;;;;;5011855;28;20022;-67
2021/04/07 00:04:07;;;;;;;25.38;17.55;;;;;;;;;;5013173;28;20033;-66
2021/04/07 00:06:34;;;;;;;29.88;17.77;;;;;;;;;;5018567;28;20037;-66
2021/04/07 00:09:01;;;;;;;26.65;17.27;;;;;;;;;;5018311;28;20420;-67
2021/04/07 00:11:28;;;;;;;29.17;18.50;;;;;;;;;;5000928;28;20048;-67
2021/04/07 00:13:54;;;;;;;22.67;14.80;;;;;;;;;;5018654;28;20018;-67
2021/04/07 00:16:20;;;;;;;15.07;11.35;;;;;;;;;;5018296;28;20032;-67
2021/04/07 00:18:45;;;;;;;13.88;10.32;;;128.40;2252.80;;;;;;5018363;28;20026;-68
2021/04/07 00:21:11;;;;;;;11.75;8.27;;;;;;;;;;5017743;28;20058;-66
2021/04/07 00:23:37;;;;;;;17.45;9.82;;;128.10;2252.80;;;;;;5011303;28;20026;-67
2021/04/07 00:26:03;;;;;;;17.00;12.13;;;128.20;2252.80;;;;;;5016005;28;20033;-67
2021/04/07 00:28:29;;;;;;;18.83;11.73;;;;;;;;;;5018128;28;20022;-70
2021/04/07 00:30:55;;;;;;;25.10;15.50;;;153.90;2124.80;;;;;;5121657;23;20042;-68
2021/04/07 00:33:21;;;;;;;23.15;13.50;;;153.90;2252.80;;;;;;5018862;28;20029;-66
2021/04/07 00:35:47;;;;;;;18.10;12.20;;;154.10;2099.20;;;;;;5012532;28;20465;-67
2021/04/07 00:38:12;;;;;;;20.02;13.43;;;128.80;2252.80;;;;;;5018159;28;20030;-67
2021/04/07 00:40:38;;;;;;;23.02;13.25;;;128.90;2227.20;;;;;;5017806;28;20022;-68
2021/04/07 00:43:04;;;;;;;21.65;13.40;;;153.60;2201.60;;;;;;5018470;28;20033;-68
2021/04/07 00:45:30;;;;;;;23.50;13.93;;;153.70;2201.60;;;;;;5018098;28;20060;-66
2021/04/07 00:47:56;;;;;;;19.83;13.63;;;;;;;;;;5000484;28;20022;-68
2021/04/07 00:50:24;;;;;;;19.90;13.43;;;;;;;;;;5000499;28;20037;-68
2021/04/07 00:52:50;;;;;;;23.70;14.90;;;;;;;;;;5000927;28;20037;-68
2021/04/07 00:55:18;;;;;;;51.58;34.85;;;154.40;2073.60;;;;;;5002470;28;20023;-68
2021/04/07 00:57:45;;;;;;;20.67;14.52;;;154.50;2073.60;;;;;;5000200;28;20026;-67
2021/04/07 01:00:12;;;;;;;50.63;43.50;;;154.10;2124.80;;;;;;5002897;28;20042;-68
2021/04/07 01:02:41;;;;;;;64.72;54.45;;;154.10;2252.80;;;;;;5018283;28;20037;-68
2021/04/07 01:05:09;;;;;;;53.33;34.38;;;154.20;2252.80;;;;;;5018303;28;20026;-71
2021/04/07 01:07:35;;;;;;;35.42;27.42;;;154.40;2099.20;;;;;;5018050;28;20041;-71
2021/04/07 01:10:03;;;;;;;31.60;26.92;;;154.30;2048.00;;;;;;5018392;28;20144;-70
2021/04/07 01:12:29;;;;;;;29.58;21.58;;;154.30;2073.60;;;;;;5018314;28;20022;-70
2021/04/07 01:14:55;;;;;;;29.75;23.17;;;154.30;2073.60;;;;;;5018596;28;20381;-70
2021/04/07 01:17:21;;;;;;;28.73;20.55;;;154.10;2073.60;;;;;;5015194;28;20037;-69
2021/04/07 01:19:46;;;;;;;33.53;23.33;;;154.20;2073.60;;;;;;5015093;28;20014;-69
2021/04/07 01:22:15;;;;;;;16.02;11.55;;;154.40;2073.60;;;;;;5015241;28;20542;-69
2021/04/07 01:24:41;;;;;;;15.15;10.32;;;154.20;2073.60;;;;;;5014992;28;20014;-69
2021/04/07 01:27:07;;;;;;;15.38;11.77;;;;;;;;;;5015007;28;20453;-70
2021/04/07 01:29:33;;;;;;;23.63;17.83;;;;;;;;;;5014857;28;20069;-69
2021/04/07 01:31:59;;;;;;;13.23;9.70;;;;;;;;;;4997097;28;20038;-70
2021/04/07 01:34:26;;;;;;;54.53;46.40;;;;;;;;;;4995373;28;20113;-70
2021/04/07 01:36:52;;;;;;;14.95;10.45;;;;;;;;;;4995310;28;20492;-70
2021/04/07 01:39:20;;;;;;;13.57;9.50;;;;;;;;;;4977647;28;20031;-70
2021/04/07 01:41:46;;;;;;;12.10;8.45;;;;;;;;;;4995164;28;20050;-71
2021/04/07 01:44:14;;;;;;;15.55;9.77;;;;;;;;;;4995375;28;20520;-71
2021/04/07 01:46:40;;;;;;;17.38;11.20;;;;;;;;;;4995220;28;20022;-70
2021/04/07 01:49:07;;;;;;;53.55;42.00;;;;;;;;;;4995282;28;20026;-70
2021/04/07 01:51:34;;;;;;;16.88;11.00;;;;;;;;;;4995280;28;20022;-71
2021/04/07 01:54:01;;;;;;;58.83;37.25;;;;;;;;;;4994955;28;20023;-71
2021/04/07 01:56:27;;;;;;;46.33;26.08;;;;;;;;;;4995012;28;20117;-70
2021/04/07 01:59:11;;;;;;;28.83;16.48;;;;;;;;;;4995047;28;20026;-71
2021/04/07 02:01:37;;;;;;;28.13;17.48;;;128.90;2150.40;;;;;;4995093;28;20488;-71
2021/04/07 02:04:03;;;;;;;16.17;9.90;;;153.60;2150.40;;;;;;4994892;28;20026;-71
2021/04/07 02:06:29;;;;;;;101.38;38.25;;;153.70;2124.80;;;;;;4994940;28;20100;-71
2021/04/07 02:08:55;;;;;;;46.97;22.80;;;153.60;2124.80;;;;;;4994643;28;20461;-66
2021/04/07 02:11:21;;;;;;;25.08;14.57;;;;;;;;;;4994876;28;20461;-66
2021/04/07 02:13:48;;;;;;;24.05;20.05;;;;;;;;;;4994763;28;20054;-67
2021/04/07 02:16:14;;;;;;;10.15;6.78;;;;;;;;;;4994757;28;20481;-66
2021/04/07 02:18:41;;;;;;;17.35;10.75;;;;;;;;;;4994874;28;20397;-68
2021/04/07 02:21:07;;;;;;;14.77;9.43;;;;;;;;;;4993262;28;20042;-68
2021/04/07 02:23:34;;;;;;;12.15;8.55;;;;;;;;;;4994418;28;20027;-67
2021/04/07 02:26:00;;;;;;;18.67;13.98;;;;;;;;;;4994416;28;20015;-68
2021/04/07 02:28:26;;;;;;;22.38;15.52;;;;;;;;;;4994133;28;20022;-67
2021/04/07 02:30:52;;;;;;;25.42;15.52;;;154.30;2022.40;;;;;;4993959;28;20054;-67
2021/04/07 02:33:19;;;;;;;18.95;13.23;;;154.30;2099.20;;;;;;4994406;28;20052;-67
2021/04/07 02:35:45;;;;;;;25.08;16.75;;;154.40;2022.40;;;;;;4994423;28;20038;-67
2021/04/07 02:38:11;;;;;;;25.92;18.35;;;;;;;;;;4994019;28;20400;-67
2021/04/07 02:40:37;;;;;;;27.52;18.83;;;;;;;;;;4994353;28;20023;-66
2021/04/07 02:43:03;;;;;;;24.88;17.42;;;;;;;;;;4994284;28;20498;-68
2021/04/07 02:45:29;;;;;;;24.75;16.85;;;;;;;;;;4994140;28;20023;-69
2021/04/07 02:47:55;;;;;;;22.20;13.88;;;;;;;;;;4994217;28;20076;-68
2021/04/07 02:50:21;;;;;;;14.43;9.90;;;154.50;1996.80;;;;;;4994090;28;20037;-67
2021/04/07 02:52:47;;;;;;;18.70;11.20;;;154.50;1996.80;;;;;;4994068;28;20022;-67
2021/04/07 02:55:13;;;;;;;16.15;11.77;;;179.20;1996.80;;;;;;4993691;28;20026;-67
2021/04/07 02:57:39;;;;;;;17.88;12.15;;;179.20;2022.40;;;;;;4993927;28;20041;-65
2021/04/07 03:00:07;;;;;;;15.68;11.48;;;154.50;2022.40;;;;;;4993834;28;20038;-68
2021/04/07 03:02:33;;;;;;;18.95;12.27;;;179.20;2048.00;;;;;;4993780;28;20093;-69
2021/04/07 03:04:59;;;;;;;15.63;10.93;;;179.20;2022.40;;;;;;4992587;28;20022;-68
2021/04/07 03:07:25;;;;;;;14.93;10.07;;;;;;;;;;4993637;28;20116;-69
2021/04/07 03:09:51;;;;;;;11.27;7.65;;;;;;;;;;4993849;28;20426;-69
2021/04/07 03:12:17;;;;;;;10.65;7.30;;;;;;;;;;4993649;28;20109;-69
2021/04/07 03:14:43;;;;;;;11.60;8.25;;;;;;;;;;4993888;28;20452;-69
2021/04/07 03:17:10;;;;;;;10.85;8.02;;;;;;;;;;4993570;28;20393;-69
2021/04/07 03:19:36;;;;;;;11.55;8.38;;;;;;;;;;4993471;28;20026;-69
2021/04/07 03:22:03;;;;;;;11.25;8.07;;;;;;;;;;4992262;28;20078;-69
2021/04/07 03:24:29;;;;;;;11.50;8.13;;;;;;;;;;4993094;28;20042;-72
2021/04/07 03:26:55;;;;;;;23.63;14.82;;;;;;;;;;4993455;28;20069;-71
2021/04/07 03:29:21;;;;;;;24.50;15.15;;;;;;;;;;4993221;28;20096;-71
2021/04/07 03:31:47;;;;;;;23.95;14.38;;;;;;;;;;4993212;28;20054;-68
2021/04/07 03:34:13;;;;;;;28.15;17.35;;;154.20;2022.40;;;;;;4993232;28;20034;-67
2021/04/07 03:36:39;;;;;;;19.00;12.10;;;154.20;2048.00;;;;;;4993256;28;20030;-68
2021/04/07 03:39:04;;;;;;;14.60;8.25;;;153.90;2073.60;;;;;;4992401;28;20038;-68
2021/04/07 03:41:30;;;;;;;15.18;10.27;;;153.60;2099.20;;;;;;4992778;28;20496;-67
2021/04/07 03:43:56;;;;;;;16.48;11.10;;;153.60;2099.20;;;;;;4993170;28;20022;-68
2021/04/07 03:46:21;;;;;;;19.65;12.88;;;153.90;2073.60;;;;;;4993309;28;20457;-67
2021/04/07 03:48:47;;;;;;;20.08;14.48;;;153.90;2048.00;;;;;;4992952;28;20029;-67
2021/04/07 03:51:13;;;;;;;22.95;13.63;;;128.50;2201.60;;;;;;4993153;28;20750;-67
2021/04/07 03:53:39;;;;;;;16.83;12.88;;;128.60;2176.00;;;;;;4992892;28;20029;-72
2021/04/07 03:56:05;;;;;;;15.25;11.18;;;128.80;2150.40;;;;;;4992921;28;20026;-71
2021/04/07 03:58:31;;;;;;;27.13;19.33;;;153.60;2099.20;;;;;;4992951;28;20557;-72
2021/04/07 04:00:57;;;;;;;25.00;18.27;;;153.80;2073.60;;;;;;4993018;28;20105;-71
2021/04/07 04:03:23;;;;;;;26.63;18.88;;;153.90;2048.00;;;;;;4992981;28;20529;-71
2021/04/07 04:05:49;;;;;;;25.45;16.70;;;153.90;2048.00;;;;;;4992782;28;20495;-69
2021/04/07 04:08:15;;;;;;;28.27;16.58;;;154.00;2048.00;;;;;;4993015;28;20022;-68
2021/04/07 04:10:41;;;;;;;22.25;14.90;;;154.10;2022.40;;;;;;4992712;28;20432;-69
2021/04/07 04:13:07;;;;;;;25.23;16.45;;;154.00;2022.40;;;;;;4991225;28;20038;-68
2021/04/07 04:15:33;;;;;;;32.63;19.98;;;153.90;2022.40;;;;;;4992978;28;20027;-69
2021/04/07 04:18:00;;;;;;;28.85;18.10;;;153.90;2048.00;;;;;;4992856;28;20385;-70
2021/04/07 04:20:26;;;;;;;23.25;15.77;;;153.70;2048.00;;;;;;4992896;28;20030;-70
2021/04/07 04:22:52;;;;;;;27.25;18.73;;;128.90;2073.60;;;;;;4992711;28;20049;-71
2021/04/07 04:25:20;;;;;;;27.20;16.92;;;153.70;2073.60;;;;;;4992771;28;20073;-69
2021/04/07 04:27:47;;;;;;;22.40;15.15;;;153.90;2073.60;;;;;;4992612;28;20125;-70
2021/04/07 04:30:15;;;;;;;25.95;17.42;;;154.10;2048.00;;;;;;4992565;28;20046;-72
2021/04/07 04:32:41;;;;;;;29.60;22.30;;;154.20;2022.40;;;;;;4992684;28;20384;-72
2021/04/07 04:35:09;;;;;;;33.95;21.98;;;154.20;2022.40;;;;;;4992782;28;20026;-72
2021/04/07 04:37:36;;;;;;;37.75;26.20;;;154.30;2252.80;;;;;;4992507;28;20042;-71
2021/04/07 04:40:02;;;;;;;44.35;30.98;;;154.20;2022.40;;;;;;4992486;28;20018;-69
2021/04/07 04:42:28;;;;;;;46.63;29.58;;;;;;;;;;4992506;28;20022;-69
2021/04/07 04:44:54;;;;;;;63.75;35.22;;;;;;;;;;4992676;28;20038;-68
2021/04/07 04:47:20;;;;;;;58.83;34.13;;;;;;;;;;4991005;28;20082;-69
2021/04/07 04:49:46;;;;;;;61.70;38.47;;;;;;;;;;4992644;28;20030;-69
2021/04/07 04:52:12;;;;;;;74.07;42.70;;;;;;;;;;4995749;28;20021;-69
2021/04/07 04:54:38;;;;;;;71.35;43.45;;;;;;;;;;4996266;28;20073;-69
2021/04/07 04:57:04;;;;;;;67.43;43.25;;;;;;;;;;4982287;28;20041;-68
2021/04/07 04:59:30;;;;;;;72.80;44.00;;;;;;;;;;4995899;28;20022;-69
2021/04/07 05:01:56;;;;;;;71.45;47.78;;;;;;;;;;4996059;28;20073;-69
2021/04/07 05:04:23;;;;;;;91.20;65.07;;;;;;;;;;4996198;28;20044;-69
2021/04/07 05:06:49;;;;;;;73.53;46.63;;;;;;;;;;4994463;28;20031;-69
2021/04/07 05:09:15;;;;;;;76.07;45.30;;;;;;;;;;4994552;28;20026;-69
2021/04/07 05:11:41;;;;;;;58.75;37.55;;;;;;;;;;4996035;28;20026;-69
2021/04/07 05:14:06;;;;;;;65.30;39.15;;;154.10;1971.20;;;;;;4995780;28;20018;-67
2021/04/07 05:16:33;;;;;;;65.65;40.72;;;154.10;1996.80;;;;;;4995770;28;20041;-68
2021/04/07 05:19:00;;;;;;;85.70;52.95;;;154.00;1971.20;;;;;;4995659;28;20022;-69
2021/04/07 05:21:25;;;;;;;77.90;50.85;;;153.90;2201.60;;;;;;4995781;28;20038;-68
2021/04/07 05:23:53;;;;;;;79.43;51.05;;;;;;;;;;4995958;28;20053;-71
2021/04/07 05:26:18;;;;;;;48.58;31.80;;;154.40;1971.20;;;;;;4995283;28;20030;-68
2021/04/07 05:28:45;;;;;;;50.47;29.52;;;179.20;1945.60;;;;;;4995582;28;20029;-68
2021/04/07 05:31:13;;;;;;;55.00;37.42;;;154.10;1971.20;;;;;;4995119;28;20077;-68
2021/04/07 05:33:40;;;;;;;57.50;35.42;;;154.20;1945.60;;;;;;4994156;28;20082;-67
2021/04/07 05:36:09;;;;;;;78.10;46.53;;;154.20;1971.20;;;;;;4995334;28;20088;-68
2021/04/07 05:38:35;;;;;;;102.18;64.75;;;154.10;2252.80;;;;;;4994038;28;20571;-68
2021/04/07 05:41:01;;;;;;;67.82;41.92;;;154.10;1945.60;;;;;;4994837;28;20030;-68
2021/04/07 05:43:28;;;;;;;76.50;48.70;;;154.10;1945.60;;;;;;4995174;28;20026;-68
2021/04/07 05:45:54;;;;;;;108.28;75.03;;;154.10;1945.60;;;;;;4995204;28;20033;-71
2021/04/07 05:48:20;;;;;;;111.80;74.47;;;;;;;;;;4995094;28;20026;-69
2021/04/07 05:50:48;;;;;;;99.18;64.10;;;;;;;;;;4988326;28;20382;-70
2021/04/07 05:53:15;;;;;;;106.57;68.70;;;;;;;;;;4988799;28;20103;-70
2021/04/07 05:55:48;;;;;;;67.13;41.58;;;179.40;1920.00;;;;;;4994726;28;20733;-68
2021/04/07 05:58:15;;;;;;;82.80;52.30;;;179.50;1868.80;;;;;;4994902;28;20065;-69
2021/04/07 06:00:41;;;;;;;73.55;46.97;;;179.60;1868.80;;;;;;4994682;28;20053;-69
2021/04/07 06:03:08;;;;;;;70.60;43.05;;;179.30;1868.80;;;;;;4992680;28;20474;-67
2021/04/07 06:05:35;;;;;;;70.32;44.45;;;179.40;1868.80;;;;;;4994666;28;20026;-68
2021/04/07 06:08:01;;;;;;;65.13;39.58;;;179.40;1843.20;;;;;;4995032;28;20872;-68
2021/04/07 06:10:28;;;;;;;55.05;34.35;;;179.70;1868.80;;;;;;4994420;28;20026;-67
2021/04/07 06:12:54;;;;;;;58.65;37.30;;;179.60;1868.80;;;;;;4994894;28;20018;-68
2021/04/07 06:15:21;;;;;;;56.00;34.63;;;179.90;1843.20;;;;;;4994830;28;20033;-69
2021/04/07 06:17:53;;;;;;;56.60;35.60;;;180.00;1817.60;;;;;;4994468;28;20031;-70
2021/04/07 06:20:21;;;;;;;42.47;26.35;;;180.00;1792.00;;;;;;4994737;28;20022;-70
2021/04/07 06:22:47;;;;;;;38.53;24.70;;;180.10;1792.00;;;;;;4994570;28;20026;-70
2021/04/07 06:25:13;;;;;;;40.80;25.77;;;180.00;1792.00;;;;;;4994522;28;20098;-69
2021/04/07 06:27:39;;;;;;;35.17;22.05;;;204.80;1792.00;;;;;;4994420;28;20143;-70
2021/04/07 06:30:07;;;;;;;38.22;23.20;;;180.10;1792.00;;;;;;4992905;28;20487;-70
2021/04/07 06:32:33;;;;;;;37.17;24.27;;;204.90;1766.40;;;;;;4994429;28;20085;-69
2021/04/07 06:34:58;;;;;;;32.03;20.88;;;204.90;1740.80;;;;;;4994420;28;20022;-67
2021/04/07 06:37:24;;;;;;;38.67;25.73;;;204.90;1766.40;;;;;;4994428;28;20050;-68
2021/04/07 06:39:50;;;;;;;39.28;26.27;;;204.80;1766.40;;;;;;4994092;28;20010;-69
2021/04/07 06:42:17;;;;;;;46.67;29.17;;;205.00;1817.60;;;;;;4994219;28;20030;-70
2021/04/07 06:44:43;;;;;;;40.45;28.13;;;;;;;;;;4994411;28;20496;-70
2021/04/07 06:47:10;;;;;;;54.80;33.10;;;;;;;;;;4994064;28;20101;-70
2021/04/07 06:49:36;;;;;;;67.00;40.05;;;;;;;;;;4994202;28;20145;-69
2021/04/07 06:52:05;;;;;;;62.40;39.75;;;205.40;1715.20;;;;;;4993977;28;20490;-67
2021/04/07 06:54:32;;;;;;;53.85;35.47;;;;;;;;;;4993886;28;20037;-71
2021/04/07 06:56:59;;;;;;;52.10;35.75;;;;;;;;;;4993663;28;20042;-71
2021/04/07 06:59:25;;;;;;;52.63;33.80;;;;;;;;;;4993798;28;20030;-69
2021/04/07 07:01:51;;;;;;;42.78;26.73;;;;;;;;;;4993722;28;20038;-69
2021/04/07 07:04:17;;;;;;;45.50;27.92;;;205.60;1689.60;;;;;;4993893;28;20046;-68
2021/04/07 07:06:46;;;;;;;35.65;25.17;;;205.50;1689.60;;;;;;4992561;28;20066;-67
2021/04/07 07:09:19;;;;;;;42.80;28.73;;;205.50;1689.60;;;;;;4993628;28;20049;-68
2021/04/07 07:11:50;;;;;;;44.72;28.27;;;205.50;1689.60;;;;;;4993645;28;20104;-67
2021/04/07 07:14:18;;;;;;;45.70;31.90;;;205.50;1689.60;;;;;;4993462;28;20018;-68
2021/04/07 07:16:45;;;;;;;51.45;32.28;;;205.70;1664.00;;;;;;4993532;28;20034;-66
2021/04/07 07:19:21;;;;;;;37.72;24.02;;;230.40;1664.00;;;;;;4993333;28;20477;-68
2021/04/07 07:21:54;;;;;;;46.67;26.50;;;230.40;1587.20;;;;;;4993378;28;20031;-68
2021/04/07 07:24:33;;;;;;;35.00;22.58;;;205.70;1612.80;;;;;;4993375;28;20081;-68
2021/04/07 07:27:01;;;;;;;37.63;23.98;;;205.70;1638.40;;;;;;4993124;28;20022;-68
2021/04/07 07:29:29;;;;;;;46.70;26.25;;;230.50;1612.80;;;;;;4993075;28;20018;-68
2021/04/07 07:31:59;;;;;;;64.35;36.10;;;;;;;;;;4993098;28;20437;-69
2021/04/07 07:34:26;;;;;;;38.85;23.75;;;230.70;1638.40;;;;;;4993120;28;20033;-68
2021/04/07 07:36:53;;;;;;;37.03;24.98;;;230.80;1638.40;;;;;;4993249;28;20034;-68
2021/04/07 07:39:30;;;;;;;35.38;23.38;;;230.90;1612.80;;;;;;4993077;28;20497;-69
2021/04/07 07:42:02;;;;;;;31.40;20.15;;;230.60;1612.80;;;;;;4993012;28;20381;-69
2021/04/07 07:44:36;;;;;;;34.45;22.48;;;230.60;1587.20;;;;;;4993220;28;20022;-69
2021/04/07 07:47:17;;;;;;;37.97;22.05;;;230.80;1612.80;;;;;;4992907;28;20023;-72
2021/04/07 07:49:54;;;;;;;30.30;18.77;;;230.70;1587.20;;;;;;4993149;28;20078;-71
2021/04/07 07:52:27;;;;;;;36.67;20.17;;;230.70;1587.20;;;;;;4991247;28;20054;-69
2021/04/07 07:54:53;;;;;;;29.90;19.10;;;230.50;1536.00;;;;;;4993021;28;20049;-69
2021/04/07 07:57:19;;;;;;;38.47;23.13;;;230.60;1561.60;;;;;;4992724;28;20491;-69
2021/04/07 07:59:45;;;;;;;30.17;17.33;;;230.70;1561.60;;;;;;4992870;28;20057;-68
2021/04/07 08:02:20;;;;;;;35.55;21.75;;;205.70;1561.60;;;;;;4992739;28;20027;-68
2021/04/07 08:04:47;;;;;;;33.67;21.67;;;230.60;1561.60;;;;;;4992969;28;20388;-68
2021/04/07 08:07:14;;;;;;;31.88;19.92;;;230.50;1587.20;;;;;;4992804;28;20027;-69
2021/04/07 08:09:40;;;;;;;39.33;23.05;;;230.60;1561.60;;;;;;4992800;28;20105;-69
2021/04/07 08:12:09;;;;;;;27.58;18.85;;;230.60;1587.20;;;;;;4992685;28;20030;-68
2021/04/07 08:14:35;;;;;;;28.77;19.98;;;230.90;1561.60;;;;;;4992594;28;20030;-69
2021/04/07 08:17:01;;;;;;;37.53;21.48;;;231.20;1536.00;;;;;;4992765;28;20041;-68
2021/04/07 08:19:29;;;;;;;32.75;18.67;;;231.10;1484.80;;;;;;4992556;28;20030;-68
2021/04/07 08:21:58;;;;;;;30.67;17.75;;;231.30;1510.40;;;;;;4992679;28;20034;-68
2021/04/07 08:24:27;;;;;;;61.90;28.35;;;231.10;1433.60;;;;;;4991232;28;20026;-68
2021/04/07 08:26:54;;;;;;;34.22;21.13;;;231.20;1433.60;;;;;;4995712;28;20229;-68
2021/04/07 08:29:19;;;;;;;31.80;19.00;;;231.10;1484.80;;;;;;4996474;28;20041;-68
2021/04/07 08:31:49;;;;;;;22.77;15.77;;;256.10;1484.80;;;;;;4996432;28;20054;-68
2021/04/07 08:34:15;;;;;;;26.13;17.40;;;256.50;1408.00;;;;;;4996321;28;20034;-68
2021/04/07 08:36:43;;;;;;;26.63;17.25;;;256.80;1433.60;;;;;;4996432;28;20465;-68
2021/04/07 08:39:11;;;;;;;29.10;18.70;;;256.90;1408.00;;;;;;4996266;28;20436;-69
2021/04/07 08:41:38;;;;;;;30.45;18.13;;;256.30;1408.00;;;;;;4995927;28;20025;-68
2021/04/07 08:44:05;;;;;;;22.65;15.10;;;256.40;1382.40;;;;;;4996314;28;20061;-69
2021/04/07 08:46:53;;;;;;;31.67;18.73;;;256.00;1433.60;;;;;;4996121;28;20078;-69
2021/04/07 08:49:40;;;;;;;18.88;12.18;;;256.20;1382.40;;;;;;4996302;28;20026;-69
2021/04/07 08:52:20;;;;;;;21.60;13.90;;;256.90;1408.00;;;;;;4996105;28;20109;-69
2021/04/07 08:54:48;;;;;;;28.88;17.20;;;281.90;1356.80;;;;;;4996391;28;20152;-70
2021/04/07 08:57:32;;;;;;;29.45;17.15;;;281.80;1356.80;;;;;;4995876;28;20038;-69
2021/04/07 09:00:04;;;;;;;22.90;13.70;;;282.00;1382.40;;;;;;4995879;28;20030;-71
2021/04/07 09:02:30;;;;;;;30.10;19.08;;;281.70;1356.80;;;;;;4995856;28;20116;-70
2021/04/07 09:05:05;;;;;;;28.92;17.23;;;281.60;1356.80;;;;;;4995774;28;20025;-70
2021/04/07 09:07:37;;;;;;;22.73;13.43;;;282.00;1382.40;;;;;;4995733;28;20533;-70
2021/04/07 09:10:20;;;;;;;19.63;13.75;;;282.00;1305.60;;;;;;4995955;28;20499;-71
2021/04/07 09:12:48;;;;;;;22.45;12.80;;;282.40;1331.20;;;;;;4995723;28;20053;-71
2021/04/07 09:15:24;;;;;;;21.40;13.68;;;307.30;1280.00;;;;;;4995752;28;20504;-71
2021/04/07 09:17:56;;;;;;;140.15;94.85;;;307.60;1331.20;;;;;;4995691;28;20061;-67
2021/04/07 09:20:45;;;;;;;22.42;18.50;;;307.90;1280.00;;;;;;4995719;28;20018;-69
2021/04/07 09:23:16;;;;;;;26.45;17.02;;;308.10;1280.00;;;;;;4980145;28;20027;-70
2021/04/07 09:26:10;;;;;;;21.40;14.98;;;308.00;1254.40;;;;;;4981257;28;20039;-65
2021/04/07 09:28:45;;;;;;;21.15;15.30;;;332.90;1228.80;;;;;;4973915;28;20161;-69
2021/04/07 09:31:13;;;;;;;18.40;12.60;;;332.80;1254.40;;;;;;4975900;28;20050;-69
2021/04/07 09:33:43;;;;;;;48.53;34.97;;;307.90;1203.20;;;;;;4975472;28;20027;-69
2021/04/07 09:36:10;;;;;;;128.77;94.20;;;307.80;1177.60;;;;;;4979687;28;20494;-68
2021/04/07 09:38:50;;;;;;;95.78;70.85;;;307.70;1254.40;;;;;;4976002;28;20069;-67
2021/04/07 09:41:27;;;;;;;51.90;43.72;;;332.90;1254.40;;;;;;4978339;28;20504;-68
2021/04/07 09:44:04;;;;;;;47.92;37.35;;;358.50;1152.00;;;;;;4975410;28;20023;-68
2021/04/07 09:46:30;;;;;;;30.80;19.35;;;384.40;1049.60;;;;;;4977740;28;20027;-66
2021/04/07 09:49:03;;;;;;;80.97;63.42;;;358.60;1126.40;;;;;;4979160;28;20376;-67
2021/04/07 09:51:33;;;;;;;55.60;44.17;;;;;;;;;;4976951;28;20101;-67
2021/04/07 09:54:19;;;;;;;54.95;46.92;;;333.60;1203.20;;;;;;4976985;28;20026;-67
2021/04/07 09:56:51;;;;;;;32.10;23.23;;;358.40;1126.40;;;;;;4972692;28;20038;-66
2021/04/07 09:59:18;;;;;;;19.58;14.45;;;359.30;998.40;;;;;;4979474;28;20035;-65
2021/04/07 10:01:44;;;;;;;22.35;16.70;;;359.10;1049.60;;;;;;4970518;28;20041;-66
2021/04/07 10:04:11;;;;;;;38.55;26.50;;;359.20;998.40;;;;;;4987934;28;20449;-67
2021/04/07 10:06:38;;;;;;;25.17;18.75;;;435.20;998.40;;;;;;4985873;28;20065;-66
2021/04/07 10:09:09;;;;;;;43.92;31.30;;;486.90;844.80;;;;;;4994113;28;20097;-67
2021/04/07 10:11:38;;;;;;;23.30;18.40;;;512.90;844.80;;;;;;4982300;28;20030;-67
2021/04/07 10:14:05;;;;;;;16.83;12.75;;;512.20;716.80;;;;;;4974308;28;20031;-65
2021/04/07 10:16:39;;;;;;;18.58;13.93;;;486.70;819.20;;;;;;4983162;28;20026;-69
2021/04/07 10:19:09;;;;;;;27.17;22.30;;;512.20;947.20;;;;;;4993708;28;20035;-68
2021/04/07 10:21:37;;;;;;;19.15;13.55;;;537.90;768.00;;;;;;4987119;28;20022;-67
2021/04/07 10:24:05;;;;;;;20.58;15.90;;;538.00;665.60;;;;;;4989021;28;20030;-67
2021/04/07 10:26:32;;;;;;;22.38;15.63;;;512.90;691.20;;;;;;4993078;28;20101;-68
2021/04/07 10:29:02;;;;;;;24.88;16.58;;;512.30;742.40;;;;;;4990089;28;20022;-66
2021/04/07 10:31:29;;;;;;;25.30;18.20;;;537.90;742.40;;;;;;4993580;28;20049;-68
2021/04/07 10:34:09;;;;;;;19.40;15.23;;;538.30;716.80;;;;;;4993577;28;20026;-68
2021/04/07 10:36:37;;;;;;;18.50;15.95;;;538.50;640.00;;;;;;4993618;28;20038;-69
2021/04/07 10:39:20;;;;;;;20.48;16.48;;;589.20;588.80;;;;;;4993672;28;20031;-70
2021/04/07 10:41:52;;;;;;;16.02;11.70;;;589.50;588.80;;;;;;4993200;28;20018;-68
2021/04/07 10:44:25;;;;;;;18.60;14.02;;;589.50;665.60;;;;;;4993465;28;20077;-68
2021/04/07 10:46:51;;;;;;;14.25;10.60;;;589.30;588.80;;;;;;4991903;28;20041;-67
2021/04/07 10:49:18;;;;;;;14.60;10.40;;;589.00;588.80;;;;;;4993397;28;20458;-69
2021/04/07 10:51:44;;;;;;;13.55;10.20;;;615.30;537.60;;;;;;4993743;28;20474;-70
2021/04/07 10:54:10;;;;;;;13.57;9.88;;;640.90;486.40;;;;;;4993213;28;20101;-68
2021/04/07 10:56:37;;;;;;;15.43;12.43;;;640.60;512.00;;;;;;4990727;28;20129;-69
2021/04/07 10:59:06;;;;;;;12.35;9.60;;;666.20;512.00;;;;;;4993072;28;20027;-69
2021/04/07 11:01:33;;;;;;;12.05;9.50;;;691.60;512.00;;;;;;4993133;28;20504;-70
2021/04/07 11:04:09;;;;;;;14.60;11.52;;;;;;;;;;4993034;28;20022;-70
2021/04/07 11:06:35;;;;;;;14.93;12.75;;;614.40;588.80;;;;;;4993127;28;20022;-68
2021/04/07 11:09:01;;;;;;;20.67;15.55;;;640.20;563.20;;;;;;4991832;28;20034;-70
2021/04/07 11:11:26;;;;;;;19.20;13.45;;;588.80;614.40;;;;;;4992976;28;20048;-69
2021/04/07 11:13:53;;;;;;;16.92;11.75;;;614.80;537.60;;;;;;4992939;28;20049;-68
2021/04/07 11:16:19;;;;;;;18.05;12.25;;;640.20;486.40;;;;;;4991575;28;20066;-70
2021/04/07 11:18:46;;;;;;;9.50;8.10;;;691.70;435.20;;;;;;4992895;28;20489;-69
2021/04/07 11:21:14;;;;;;;17.77;11.85;;;717.20;435.20;;;;;;4992711;28;20426;-70
2021/04/07 11:23:39;;;;;;;22.40;13.85;;;743.10;435.20;;;;;;4992741;28;20429;-70
2021/04/07 11:26:09;;;;;;;38.95;30.27;;;768.80;435.20;;;;;;4985493;28;20030;-69
2021/04/07 11:28:35;;;;;;;10.57;8.82;;;793.80;384.00;;;;;;4992836;28;20038;-68
2021/04/07 11:31:10;;;;;;;13.98;12.68;;;742.60;409.60;;;;;;4992550;28;20046;-68
2021/04/07 11:33:43;;;;;;;18.85;17.05;;;743.10;384.00;;;;;;4992629;28;20026;-69
2021/04/07 11:38:44;;;;;;;19.55;13.77;;;717.70;409.60;;;;;;4992657;28;20042;-70
2021/04/07 11:44:24;;;;;;;18.30;12.10;;;717.30;384.00;;;;;;4992366;28;20117;-68
2021/04/07 11:46:24;;;;;;;13.65;11.35;;;742.80;409.60;;;;;;4992721;28;20156;-68
2021/04/07 11:48:50;;;;;;;12.15;10.90;;;743.10;409.60;;;;;;4992574;28;20105;-69
2021/04/07 11:51:16;;;;;;;17.67;15.18;;;742.80;409.60;;;;;;4992504;28;20037;-68
2021/04/07 11:53:43;;;;;;;14.30;10.27;;;716.80;409.60;;;;;;4992216;28;20022;-68
2021/04/07 11:56:09;;;;;;;15.73;10.65;;;691.60;409.60;;;;;;4990087;28;20029;-67
2021/04/07 11:58:35;;;;;;;17.08;8.18;;;691.90;409.60;;;;;;4991842;28;20091;-68
2021/04/07 12:01:01;;;;;;;13.85;12.07;;;640.70;384.00;;;;;;4992033;28;20097;-68
2021/04/07 12:03:27;;;;;;;14.43;12.65;;;589.00;537.60;;;;;;4992055;28;20035;-67
2021/04/07 12:05:54;;;;;;;15.00;11.05;;;563.80;537.60;;;;;;4992217;28;20029;-68
2021/04/07 12:08:20;;;;;;;23.98;16.95;;;563.90;537.60;;;;;;4991025;28;20197;-67
2021/04/07 12:10:46;;;;;;;8.65;6.68;;;588.80;563.20;;;;;;4992086;28;20119;-68
2021/04/07 12:13:11;;;;;;;17.65;13.75;;;538.30;563.20;;;;;;4990628;28;20374;-68
2021/04/07 12:15:38;;;;;;;21.20;11.57;;;537.70;588.80;;;;;;4992101;28;20018;-68
2021/04/07 12:18:05;;;;;;;20.42;13.10;;;538.50;614.40;;;;;;4992041;28;20026;-69
2021/04/07 12:20:31;;;;;;;12.90;8.70;;;537.70;614.40;;;;;;4992188;28;20022;-68
2021/04/07 12:22:57;;;;;;;17.08;10.25;;;512.40;614.40;;;;;;4991266;28;20033;-68
2021/04/07 12:25:24;;;;;;;18.95;10.05;;;;;;;;;;4973517;28;20034;-69
2021/04/07 12:27:50;;;;;;;17.80;10.63;;;487.20;665.60;;;;;;4971103;28;20034;-66
2021/04/07 12:30:16;;;;;;;13.93;9.85;;;487.10;563.20;;;;;;4982259;28;20097;-68
2021/04/07 12:32:41;;;;;;;21.38;12.27;;;487.00;588.80;;;;;;4987795;28;20033;-68
2021/04/07 12:35:10;;;;;;;49.15;20.05;;;487.00;614.40;;;;;;4983239;28;20034;-68
2021/04/07 12:37:39;;;;;;;30.10;22.20;;;461.10;640.00;;;;;;4991760;28;20027;-68
2021/04/07 12:40:05;;;;;;;154.45;82.05;;;460.80;691.20;;;;;;4990664;28;20038;-68
2021/04/07 12:42:31;;;;;;;26.08;18.00;;;460.80;691.20;;;;;;4992197;28;20033;-69